Time;durP1;ratioP1;P1;durP2;ratioP2;P2;SDS_P1;SDS_P2;PMS_P1;PMS_P2;Temp;Humidity;BMP_temperature;BMP_pressure;BME280_temperature;BME280_humidity;BME280_pressure;Samples;Min_cycle;Max_cycle;Signal;HPM_P1;HPM_P2
2023/01/08 00:01:30;;;;;;;19.77;11.48;;;;;;;15.50;64.37;100497.16;5112207;28;20044;-60
2023/01/08 00:03:58;;;;;;;19.67;11.55;;;;;;;15.49;64.25;100498.13;5093817;28;20412;-61
2023/01/08 00:06:26;;;;;;;20.23;11.73;;;;;;;15.46;64.08;100502.78;5093729;28;20047;-60
2023/01/08 00:08:55;;;;;;;20.00;11.15;;;;;;;15.46;64.09;100499.25;5112094;28;20094;-60
2023/01/08 00:11:24;;;;;;;19.55;11.25;;;;;;;15.44;64.16;100501.16;5093860;28;20080;-60
2023/01/08 00:13:52;;;;;;;20.63;11.70;;;;;;;15.43;64.24;100503.00;5112009;28;20048;-60
2023/01/08 00:16:21;;;;;;;18.65;10.38;;;;;;;15.41;64.38;100499.56;5111924;28;20040;-60
2023/01/08 00:18:52;;;;;;;18.48;11.00;;;;;;;15.39;64.17;100501.53;5112444;28;20059;-59
2023/01/08 00:21:20;;;;;;;19.33;10.68;;;;;;;15.38;64.16;100498.97;5116004;28;20089;-60
2023/01/08 00:23:48;;;;;;;21.10;12.15;;;;;;;15.37;63.07;100492.72;5116001;28;20048;-60
2023/01/08 00:26:17;;;;;;;19.30;11.00;;;;;;;15.36;63.99;100504.47;5115966;28;20118;-58
2023/01/08 00:28:46;;;;;;;18.70;11.52;;;;;;;15.34;64.08;100492.94;5115933;28;20047;-60
2023/01/08 00:31:14;;;;;;;19.75;11.00;;;;;;;15.32;63.91;100497.59;5115669;28;20408;-58
2023/01/08 00:33:43;;;;;;;20.25;12.07;;;;;;;15.31;63.90;100487.81;5115768;28;20066;-60
2023/01/08 00:36:13;;;;;;;21.17;11.73;;;;;;;15.29;63.86;100484.41;5115762;28;20039;-60
2023/01/08 00:38:42;;;;;;;20.10;11.73;;;;;;;15.29;63.67;100478.16;5115697;28;20476;-59
2023/01/08 00:41:12;;;;;;;21.10;12.25;;;;;;;15.26;63.57;100473.88;5115573;28;20381;-59
2023/01/08 00:43:40;;;;;;;21.45;12.63;;;;;;;15.25;63.73;100477.56;5115511;28;20074;-60
2023/01/08 00:46:10;;;;;;;20.60;11.23;;;;;;;15.24;63.65;100481.19;5115653;28;20043;-60
2023/01/08 00:48:38;;;;;;;22.05;12.23;;;;;;;15.22;63.63;100475.06;5115621;28;20067;-58
2023/01/08 00:51:07;;;;;;;18.25;11.27;;;;;;;15.21;63.51;100481.44;5097161;28;20044;-60
2023/01/08 00:53:36;;;;;;;20.20;11.43;;;;;;;15.20;63.68;100484.25;5097178;28;20127;-59
2023/01/08 00:56:07;;;;;;;20.92;12.00;;;;;;;15.19;63.87;100472.63;5115496;28;20126;-60
2023/01/08 00:58:36;;;;;;;17.73;10.60;;;;;;;15.17;63.50;100475.44;5115309;28;20047;-60
2023/01/08 01:01:11;;;;;;;21.15;11.40;;;;;;;15.17;63.21;100471.91;5115536;28;20054;-60
2023/01/08 01:03:40;;;;;;;17.92;11.27;;;;;;;15.16;63.47;100472.88;5115346;28;20040;-60
2023/01/08 01:06:09;;;;;;;17.40;10.80;;;;;;;15.14;63.63;100475.66;5115250;28;20043;-60
2023/01/08 01:08:37;;;;;;;19.05;11.10;;;;;;;15.13;63.26;100475.78;5115185;28;20082;-59
2023/01/08 01:11:09;;;;;;;20.15;11.70;;;;;;;15.11;63.57;100483.09;5114978;28;20103;-60
2023/01/08 01:13:37;;;;;;;18.60;11.63;;;;;;;15.10;63.46;100486.75;5115161;28;20062;-60
2023/01/08 01:16:06;;;;;;;21.35;12.65;;;;;;;15.09;63.43;100479.69;5096699;28;20048;-60
2023/01/08 01:18:35;;;;;;;22.02;12.05;;;;;;;15.06;63.41;100478.09;5096625;28;20079;-59
2023/01/08 01:21:10;;;;;;;19.00;11.73;;;;;;;15.07;63.17;100489.69;5114905;28;20073;-58
2023/01/08 01:23:38;;;;;;;21.42;13.13;;;;;;;15.06;62.87;100485.28;5114887;28;20097;-59
2023/01/08 01:26:06;;;;;;;20.90;12.55;;;;;;;15.04;62.92;100485.38;5114860;28;20114;-58
2023/01/08 01:28:35;;;;;;;19.05;11.35;;;;;;;15.04;63.27;100484.53;5114817;28;20142;-60
2023/01/08 01:31:03;;;;;;;18.17;11.70;;;;;;;15.02;63.53;100483.78;5114166;28;20039;-58
2023/01/08 01:33:31;;;;;;;16.67;10.75;;;;;;;15.01;63.45;100482.94;5096474;28;20039;-59
2023/01/08 01:36:03;;;;;;;18.67;11.35;;;;;;;14.99;63.55;100476.81;5114698;28;20054;-60
2023/01/08 01:38:32;;;;;;;19.10;11.20;;;;;;;14.99;63.33;100473.28;5096242;28;20122;-57
2023/01/08 01:41:00;;;;;;;17.95;11.27;;;;;;;14.98;63.10;100471.56;5114419;28;20048;-59
2023/01/08 01:43:39;;;;;;;20.65;11.32;;;;;;;14.97;63.12;100469.84;5114496;28;20048;-59
2023/01/08 01:46:19;;;;;;;18.70;11.98;;;;;;;14.96;62.66;100454.69;5114605;28;20039;-61
2023/01/08 01:48:51;;;;;;;19.85;11.98;;;;;;;14.94;63.06;100451.25;5114348;28;20039;-59
2023/01/08 01:51:22;;;;;;;17.67;10.65;;;;;;;14.94;63.05;100451.25;5114431;28;20067;-60
2023/01/08 01:53:50;;;;;;;18.23;11.43;;;;;;;14.93;62.80;100438.81;5114462;28;20134;-60
2023/01/08 01:56:18;;;;;;;16.17;10.60;;;;;;;14.92;62.92;100431.72;5114284;28;20071;-60
2023/01/08 01:58:46;;;;;;;21.73;10.93;;;;;;;14.89;62.61;100428.31;5114200;28;20052;-60
2023/01/08 02:01:15;;;;;;;20.88;11.38;;;;;;;14.87;62.71;100424.88;5095735;28;20116;-59
2023/01/08 02:03:43;;;;;;;21.08;12.93;;;;;;;14.86;62.57;100423.19;5114119;28;20067;-59
2023/01/08 02:06:20;;;;;;;18.27;11.23;;;;;;;14.85;63.37;100418.75;5114060;28;20071;-60
2023/01/08 02:08:57;;;;;;;19.15;10.75;;;;;;;14.84;63.09;100419.72;5114027;28;20100;-59
2023/01/08 02:11:31;;;;;;;19.10;11.35;;;;;;;14.82;62.80;100410.09;5113903;28;20119;-60
2023/01/08 02:14:11;;;;;;;20.73;11.85;;;;;;;14.82;63.01;100412.78;5113841;28;20049;-60
2023/01/08 02:16:46;;;;;;;18.45;11.05;;;;;;;14.78;62.84;100404.09;5095601;28;20066;-60
2023/01/08 02:19:30;;;;;;;17.88;11.40;;;;;;;14.80;63.18;100410.19;5113580;28;20051;-59
2023/01/08 02:22:11;;;;;;;18.27;10.93;;;;;;;14.79;62.92;100410.31;5113750;28;20044;-59
2023/01/08 02:24:51;;;;;;;16.98;10.95;;;;;;;14.78;62.86;100414.84;5113786;28;20044;-59
2023/01/08 02:27:24;;;;;;;19.02;12.10;;;;;;;14.77;62.91;100407.75;5113589;28;20043;-59
2023/01/08 02:29:53;;;;;;;17.73;11.57;;;;;;;14.77;62.79;100410.44;5113660;28;20567;-60
2023/01/08 02:32:25;;;;;;;16.70;10.10;;;;;;;14.76;62.85;100407.84;5113487;28;20399;-60
2023/01/08 02:34:54;;;;;;;17.35;10.35;;;;;;;14.74;62.61;100399.91;5113508;28;20043;-60
2023/01/08 02:37:22;;;;;;;18.60;11.25;;;;;;;14.75;62.63;100403.44;5113320;28;20500;-60
2023/01/08 02:40:03;;;;;;;18.02;11.65;;;;;;;14.74;62.61;100399.06;5113665;28;20130;-59
2023/01/08 02:42:42;;;;;;;19.73;12.07;;;;;;;14.73;62.89;100395.53;5112285;28;20885;-60
2023/01/08 02:45:21;;;;;;;17.70;10.90;;;;;;;14.71;62.48;100397.47;5112959;28;20043;-60
2023/01/08 02:47:53;;;;;;;17.98;10.73;;;;;;;14.71;62.56;100392.09;5113200;28;20067;-60
2023/01/08 02:50:26;;;;;;;18.25;11.95;;;;;;;14.69;62.36;100394.03;5113241;28;20088;-60
2023/01/08 02:53:00;;;;;;;17.83;11.15;;;;;;;14.69;62.08;100388.69;5094833;28;20073;-59
2023/01/08 02:55:30;;;;;;;19.20;11.70;;;;;;;14.68;62.04;100392.34;5113004;28;20419;-60
2023/01/08 02:58:00;;;;;;;19.45;10.73;;;;;;;14.67;62.04;100385.25;5112907;28;20519;-60
2023/01/08 03:00:29;;;;;;;17.83;11.07;;;;;;;14.66;62.41;100383.50;5112999;28;20543;-60
2023/01/08 03:03:05;;;;;;;18.73;11.63;;;;;;;14.65;62.31;100384.50;5112885;28;20048;-60
2023/01/08 03:05:34;;;;;;;20.85;12.00;;;;;;;14.64;62.27;100385.47;5112897;28;20042;-59
2023/01/08 03:08:02;;;;;;;18.33;11.35;;;;;;;14.64;62.27;100390.84;5112751;28;20539;-60
2023/01/08 03:10:32;;;;;;;17.27;10.73;;;;;;;14.60;62.20;100379.47;5112930;28;20133;-59
2023/01/08 03:13:06;;;;;;;17.85;11.60;;;;;;;14.61;62.20;100380.34;5112710;28;20039;-60
2023/01/08 03:15:39;;;;;;;18.70;11.73;;;;;;;14.60;62.27;100373.25;5112666;28;20050;-60
2023/01/08 03:18:13;;;;;;;18.17;11.43;;;;;;;14.59;62.01;100356.31;5112584;28;20058;-60
2023/01/08 03:20:41;;;;;;;17.65;10.15;;;;;;;14.58;62.03;100365.31;5112668;28;20043;-59
2023/01/08 03:23:12;;;;;;;20.65;13.10;;;;;;;14.57;62.00;100366.31;5112642;28;20112;-60
2023/01/08 03:25:44;;;;;;;16.40;10.45;;;;;;;14.58;62.17;100369.84;5112840;28;20075;-59
2023/01/08 03:28:19;;;;;;;17.50;11.65;;;;;;;14.55;62.01;100367.38;5112477;28;20104;-59
2023/01/08 03:30:50;;;;;;;16.27;11.32;;;;;;;14.54;62.67;100373.72;5112449;28;20051;-59
2023/01/08 03:33:20;;;;;;;19.05;11.55;;;;;;;14.54;62.11;100371.88;5112380;28;20043;-59
2023/01/08 03:35:51;;;;;;;18.08;11.65;;;;;;;14.54;62.03;100371.03;5094057;28;20044;-59
2023/01/08 03:38:24;;;;;;;19.88;11.82;;;;;;;14.53;62.03;100358.56;5112377;28;20055;-59
2023/01/08 03:40:56;;;;;;;18.73;11.48;;;;;;;14.52;62.17;100362.22;5112257;28;20506;-59
2023/01/08 03:43:27;;;;;;;18.98;11.43;;;;;;;14.51;62.06;100363.22;5112315;28;20051;-59
2023/01/08 03:45:58;;;;;;;17.20;10.60;;;;;;;14.51;61.95;100357.84;5112270;28;20093;-59
2023/01/08 03:48:30;;;;;;;20.70;12.40;;;;;;;14.49;61.96;100354.41;5112239;28;20127;-59
2023/01/08 03:50:59;;;;;;;18.38;11.55;;;;;;;14.49;62.00;100346.38;5112162;28;20508;-59
2023/01/08 03:53:28;;;;;;;19.02;12.00;;;;;;;14.48;61.97;100345.50;5112081;28;20039;-59
2023/01/08 03:55:57;;;;;;;17.52;11.52;;;;;;;14.47;62.01;100345.59;5112052;28;20039;-59
2023/01/08 03:58:27;;;;;;;18.48;11.45;;;;;;;14.46;61.95;100338.53;5112127;28;20154;-59
2023/01/08 04:00:55;;;;;;;17.73;11.15;;;;;;;14.44;61.98;100325.19;5112046;28;20446;-59
2023/01/08 04:03:24;;;;;;;19.20;11.88;;;;;;;14.44;61.88;100340.44;5112089;28;20051;-59
2023/01/08 04:05:52;;;;;;;19.25;12.57;;;;;;;14.44;61.89;100337.75;5112092;28;20044;-59
2023/01/08 04:08:20;;;;;;;20.02;12.07;;;;;;;14.43;61.76;100341.41;5112003;28;20540;-59
2023/01/08 04:10:48;;;;;;;17.90;11.50;;;;;;;14.36;62.04;100329.41;5112007;28;20048;-59
2023/01/08 04:13:16;;;;;;;18.40;11.77;;;;;;;14.41;62.26;100335.31;5111983;28;20063;-59
2023/01/08 04:15:49;;;;;;;18.33;11.30;;;;;;;14.41;62.09;100341.53;5111978;28;20096;-59
2023/01/08 04:18:17;;;;;;;19.87;11.57;;;;;;;14.40;62.02;100342.50;5111738;28;20048;-59
2023/01/08 04:20:46;;;;;;;18.33;12.15;;;;;;;14.40;62.04;100338.97;5111941;28;20071;-59
2023/01/08 04:23:15;;;;;;;17.50;11.50;;;;;;;14.39;62.11;100342.63;5111792;28;20480;-59
2023/01/08 04:25:43;;;;;;;20.25;12.77;;;;;;;14.38;61.95;100348.94;5111957;28;20047;-59
2023/01/08 04:28:11;;;;;;;17.65;11.00;;;;;;;14.37;62.21;100345.41;5111861;28;20075;-59
2023/01/08 04:30:39;;;;;;;18.63;12.05;;;;;;;14.36;62.33;100342.84;5111911;28;20112;-59
2023/01/08 04:33:09;;;;;;;18.13;11.48;;;;;;;14.36;61.99;100345.53;5093473;28;20047;-59
2023/01/08 04:35:37;;;;;;;18.42;11.45;;;;;;;14.35;62.25;100346.50;5111791;28;20043;-58
2023/01/08 04:38:05;;;;;;;16.13;10.32;;;;;;;14.35;62.22;100341.13;5111677;28;20043;-59
2023/01/08 04:40:34;;;;;;;18.45;11.05;;;;;;;14.36;62.72;100342.84;5111563;28;20054;-58
2023/01/08 04:43:02;;;;;;;15.52;9.60;;;;;;;14.38;63.39;100336.41;5111496;28;20059;-60
2023/01/08 04:45:30;;;;;;;15.85;9.57;;;;;;;14.45;64.52;100347.56;5111659;28;20548;-60
2023/01/08 04:47:59;;;;;;;14.70;9.18;;;;;;;14.54;64.61;100341.50;5111680;28;20044;-59
2023/01/08 04:50:28;;;;;;;14.60;9.25;;;;;;;14.65;64.62;100354.09;5111661;28;20050;-59
2023/01/08 04:52:58;;;;;;;15.65;9.77;;;;;;;14.74;64.52;100348.91;5111718;28;20050;-60
2023/01/08 04:55:26;;;;;;;13.50;9.38;;;;;;;14.85;64.61;100353.44;5111689;28;20150;-60
2023/01/08 04:57:55;;;;;;;13.38;8.95;;;;;;;14.96;64.43;100353.50;5111606;28;20058;-58
2023/01/08 05:00:23;;;;;;;14.18;9.18;;;;;;;15.06;64.40;100348.28;5111496;28;20131;-59
2023/01/08 05:02:51;;;;;;;14.25;8.80;;;;;;;15.18;64.14;100344.63;5111517;28;20055;-61
2023/01/08 05:05:19;;;;;;;15.65;9.32;;;;;;;15.30;64.05;100351.72;5111438;28;20050;-60
2023/01/08 05:07:49;;;;;;;15.20;9.50;;;;;;;15.39;63.88;100340.25;5114920;28;20047;-59
2023/01/08 05:10:17;;;;;;;13.88;8.32;;;;;;;15.51;63.70;100342.97;5115090;28;20040;-60
2023/01/08 05:12:45;;;;;;;12.82;8.13;;;;;;;15.59;63.62;100343.22;5115113;28;20411;-60
2023/01/08 05:15:13;;;;;;;12.93;8.90;;;;;;;15.66;63.46;100341.78;5115027;28;20039;-60
2023/01/08 05:17:42;;;;;;;12.93;8.30;;;;;;;15.76;63.48;100336.53;5114876;28;20114;-59
2023/01/08 05:20:10;;;;;;;13.73;8.50;;;;;;;15.86;63.27;100338.34;5114834;28;20047;-60
2023/01/08 05:22:38;;;;;;;13.07;8.63;;;;;;;15.97;63.15;100327.56;5114841;28;20048;-60
2023/01/08 05:25:09;;;;;;;13.27;8.80;;;;;;;16.06;62.97;100325.09;5114769;28;20063;-58
2023/01/08 05:27:37;;;;;;;13.77;8.80;;;;;;;16.10;62.90;100327.41;5096449;28;20043;-60
2023/01/08 05:30:07;;;;;;;14.23;8.45;;;;;;;16.15;62.80;100324.34;5114653;28;20059;-59
2023/01/08 05:32:35;;;;;;;14.25;8.05;;;;;;;16.18;62.77;100321.41;5114613;28;20044;-59
2023/01/08 05:35:03;;;;;;;12.45;8.50;;;;;;;16.19;62.70;100318.59;5114680;28;20399;-60
2023/01/08 05:37:34;;;;;;;12.93;8.55;;;;;;;16.20;62.73;100324.81;5096011;28;20048;-58
2023/01/08 05:40:02;;;;;;;12.95;8.27;;;;;;;16.19;62.78;100323.09;5114355;28;20047;-61
2023/01/08 05:42:33;;;;;;;12.40;8.90;;;;;;;16.18;62.76;100327.63;5114262;28;20560;-59
2023/01/08 05:45:01;;;;;;;12.10;8.43;;;;;;;16.16;62.81;100318.00;5114423;28;20476;-59
2023/01/08 05:47:31;;;;;;;13.45;8.27;;;;;;;16.11;62.74;100317.50;5114372;28;20100;-60
2023/01/08 05:49:59;;;;;;;13.30;8.40;;;;;;;16.11;62.71;100321.03;5114290;28;20043;-60
2023/01/08 05:52:28;;;;;;;12.82;8.27;;;;;;;16.06;62.76;100306.28;5114294;28;20051;-58
2023/01/08 05:54:56;;;;;;;13.02;8.70;;;;;;;16.04;62.83;100306.41;5114341;28;20047;-60
2023/01/08 05:57:24;;;;;;;12.60;8.75;;;;;;;16.02;62.76;100311.91;5095813;28;20066;-60
2023/01/08 05:59:54;;;;;;;14.40;8.82;;;;;;;15.98;62.84;100307.75;5114058;28;20484;-59
2023/01/08 06:02:22;;;;;;;14.18;8.80;;;;;;;15.96;62.99;100303.47;5114086;28;20051;-59
2023/01/08 06:04:50;;;;;;;13.25;8.50;;;;;;;15.93;62.90;100304.59;5114073;28;20071;-60
2023/01/08 06:07:18;;;;;;;14.02;8.88;;;;;;;15.89;62.92;100289.66;5114004;28;20126;-60
2023/01/08 06:09:46;;;;;;;13.15;8.70;;;;;;;15.86;62.80;100289.94;5113953;28;20051;-59
2023/01/08 06:12:14;;;;;;;13.18;8.90;;;;;;;15.84;62.82;100291.91;5113877;28;20047;-59
2023/01/08 06:14:42;;;;;;;14.30;9.15;;;;;;;15.81;62.91;100292.13;5113899;28;20047;-60
2023/01/08 06:17:13;;;;;;;13.80;8.68;;;;;;;15.78;62.84;100289.69;5113574;28;20043;-60
2023/01/08 06:19:41;;;;;;;13.55;8.98;;;;;;;15.75;62.85;100292.63;5113767;28;20070;-60
2023/01/08 06:22:10;;;;;;;15.32;10.00;;;;;;;15.72;62.78;100292.88;5113531;28;20127;-60
2023/01/08 06:24:38;;;;;;;13.13;8.98;;;;;;;15.70;62.70;100292.13;5113624;28;20047;-60
2023/01/08 06:27:06;;;;;;;13.45;8.82;;;;;;;15.66;62.66;100290.69;5113550;28;20096;-60
2023/01/08 06:29:34;;;;;;;15.25;9.73;;;;;;;15.62;62.45;100294.59;5113664;28;20047;-58
2023/01/08 06:32:02;;;;;;;14.98;9.68;;;;;;;15.61;62.42;100290.19;5113456;28;20050;-60
2023/01/08 06:34:32;;;;;;;13.25;9.00;;;;;;;15.58;62.57;100285.03;5113393;28;20043;-60
2023/01/08 06:37:00;;;;;;;15.02;9.73;;;;;;;15.56;62.37;100281.63;5113361;28;20118;-60
2023/01/08 06:39:28;;;;;;;14.30;8.85;;;;;;;15.53;62.54;100287.22;5094876;28;20078;-60
2023/01/08 06:41:56;;;;;;;14.73;9.85;;;;;;;15.51;62.46;100287.34;5113078;28;20137;-60
2023/01/08 06:44:24;;;;;;;14.65;9.93;;;;;;;15.49;62.49;100291.16;5113293;28;20044;-60
2023/01/08 06:46:52;;;;;;;13.27;8.88;;;;;;;15.46;62.57;100286.88;5113222;28;20549;-60
2023/01/08 06:49:21;;;;;;;14.32;10.05;;;;;;;15.44;62.35;100289.69;5113100;28;20044;-60
2023/01/08 06:51:51;;;;;;;13.52;8.95;;;;;;;15.42;62.14;100288.09;5094595;28;20089;-59
2023/01/08 06:54:19;;;;;;;13.52;9.15;;;;;;;15.39;62.28;100291.88;5113095;28;20043;-60
2023/01/08 06:56:48;;;;;;;14.57;9.55;;;;;;;15.36;62.16;100286.75;5094676;28;20488;-59
2023/01/08 06:59:21;;;;;;;15.35;9.65;;;;;;;15.35;62.10;100298.50;5094721;28;20043;-59
2023/01/08 07:01:50;;;;;;;15.05;9.52;;;;;;;15.33;62.13;100294.19;5112835;28;20400;-60
2023/01/08 07:04:18;;;;;;;14.13;9.25;;;;;;;15.31;62.23;100294.31;5112792;28;20129;-59
2023/01/08 07:06:47;;;;;;;14.82;9.93;;;;;;;15.28;62.13;100294.56;5113026;28;20047;-59
2023/01/08 07:09:16;;;;;;;13.40;9.10;;;;;;;15.26;62.09;100290.31;5112813;28;20074;-59
2023/01/08 07:11:44;;;;;;;14.68;9.80;;;;;;;15.24;61.90;100287.72;5112809;28;20036;-59
2023/01/08 07:14:12;;;;;;;14.95;10.27;;;;;;;15.21;62.02;100282.59;5112594;28;20554;-60
2023/01/08 07:16:40;;;;;;;15.18;9.70;;;;;;;15.20;61.85;100290.78;5112640;28;20043;-59
2023/01/08 07:19:09;;;;;;;14.00;9.70;;;;;;;15.19;62.04;100297.97;5112525;28;20071;-60
2023/01/08 07:21:37;;;;;;;15.93;10.50;;;;;;;15.17;61.90;100297.25;5112488;28;20047;-59
2023/01/08 07:24:07;;;;;;;15.18;10.20;;;;;;;15.15;61.98;100294.69;5112537;28;20075;-59
2023/01/08 07:26:38;;;;;;;14.85;10.02;;;;;;;15.13;61.75;100293.09;5094342;28;20047;-59
2023/01/08 07:29:06;;;;;;;14.98;9.82;;;;;;;15.11;62.02;100295.03;5111977;28;20126;-60
2023/01/08 07:31:35;;;;;;;14.85;9.98;;;;;;;15.09;62.17;100291.63;5112352;28;20047;-60
2023/01/08 07:34:03;;;;;;;16.27;10.18;;;;;;;15.07;62.09;100293.59;5112438;28;20442;-59
2023/01/08 07:36:31;;;;;;;14.77;10.38;;;;;;;15.04;62.08;100283.91;5112264;28;20112;-59
2023/01/08 07:38:59;;;;;;;16.48;10.85;;;;;;;15.04;61.78;100281.22;5112283;28;20047;-59
2023/01/08 07:41:27;;;;;;;13.68;9.45;;;;;;;15.03;61.78;100286.72;5112005;28;20438;-60
2023/01/08 07:43:57;;;;;;;18.17;11.50;;;;;;;15.02;61.37;100282.31;5112259;28;20496;-59
2023/01/08 07:46:25;;;;;;;15.07;9.93;;;;;;;14.99;61.81;100291.47;5112279;28;20142;-60
2023/01/08 07:48:55;;;;;;;14.63;9.88;;;;;;;14.98;61.65;100284.41;5093938;28;20055;-59
2023/01/08 07:51:23;;;;;;;16.33;10.98;;;;;;;14.96;61.73;100282.78;5112209;28;20126;-59
2023/01/08 07:53:52;;;;;;;15.65;10.10;;;;;;;14.91;61.92;100274.25;5112224;28;20403;-59
2023/01/08 07:56:20;;;;;;;15.60;10.27;;;;;;;14.92;61.87;100282.19;5112118;28;20090;-60
2023/01/08 07:58:48;;;;;;;14.50;10.23;;;;;;;14.90;61.96;100284.16;5112061;28;20055;-59
2023/01/08 08:01:18;;;;;;;15.85;10.27;;;;;;;14.87;61.88;100285.25;5108890;28;20066;-59
2023/01/08 08:03:46;;;;;;;15.05;10.20;;;;;;;14.86;61.84;100282.66;5111615;28;20042;-60
2023/01/08 08:06:14;;;;;;;13.68;9.48;;;;;;;14.84;61.82;100277.41;5090197;28;20044;-59
2023/01/08 08:08:42;;;;;;;14.23;9.95;;;;;;;14.84;61.86;100280.09;5110733;28;20054;-59
2023/01/08 08:11:11;;;;;;;14.73;9.80;;;;;;;14.82;61.96;100271.31;5111639;28;20071;-59
2023/01/08 08:13:41;;;;;;;15.82;10.82;;;;;;;14.81;61.58;100269.59;5089555;28;20048;-59
2023/01/08 08:16:09;;;;;;;17.10;10.95;;;;;;;14.80;61.59;100265.19;5106290;28;20058;-60
2023/01/08 08:18:39;;;;;;;13.85;10.18;;;;;;;14.78;61.57;100261.78;5110198;28;20047;-60
2023/01/08 08:21:07;;;;;;;15.88;11.18;;;;;;;14.77;61.41;100268.13;5105571;28;20044;-60
2023/01/08 08:23:35;;;;;;;15.63;10.48;;;;;;;14.74;61.46;100252.25;5111799;28;20051;-60
2023/01/08 08:26:04;;;;;;;15.98;10.32;;;;;;;14.74;61.92;100262.97;5111890;28;20089;-60
2023/01/08 08:28:32;;;;;;;19.40;10.57;;;;;;;14.73;61.81;100253.22;5111690;28;20048;-60
2023/01/08 08:31:00;;;;;;;16.05;10.60;;;;;;;14.73;61.32;100247.00;5096158;28;20048;-59
2023/01/08 08:33:28;;;;;;;15.48;10.40;;;;;;;14.71;61.72;100241.75;5091548;28;20047;-59
2023/01/08 08:35:58;;;;;;;16.10;10.98;;;;;;;14.69;61.45;100243.69;5073241;28;20094;-59
2023/01/08 08:38:27;;;;;;;15.52;10.60;;;;;;;14.69;61.54;100237.47;5091281;28;20074;-59
2023/01/08 08:40:55;;;;;;;16.23;10.32;;;;;;;14.66;61.60;100235.88;5091843;28;20044;-62
2023/01/08 08:43:23;;;;;;;15.07;10.10;;;;;;;14.66;61.68;100237.69;5076958;28;20082;-58
2023/01/08 08:45:51;;;;;;;14.23;9.80;;;;;;;14.65;61.36;100239.53;5095173;28;20040;-59
2023/01/08 08:48:19;;;;;;;15.98;10.90;;;;;;;14.65;61.50;100236.00;5094999;28;20040;-60
2023/01/08 08:50:47;;;;;;;15.65;9.90;;;;;;;14.64;61.61;100232.44;5095000;28;20047;-59
2023/01/08 08:53:17;;;;;;;13.65;9.52;;;;;;;14.62;61.85;100231.72;5076785;28;20131;-59
2023/01/08 08:55:45;;;;;;;16.95;11.18;;;;;;;14.61;61.28;100232.69;5095122;28;20048;-58
2023/01/08 08:58:13;;;;;;;15.77;10.15;;;;;;;14.60;61.39;100239.91;5094968;28;20044;-58
2023/01/08 09:00:43;;;;;;;14.52;9.88;;;;;;;14.59;61.51;100234.66;5094854;28;20048;-59
2023/01/08 09:03:13;;;;;;;15.85;10.02;;;;;;;14.59;61.53;100234.66;5094646;28;20063;-59
2023/01/08 09:05:42;;;;;;;14.50;10.10;;;;;;;14.56;61.35;100237.56;5094629;28;20051;-58
2023/01/08 09:08:12;;;;;;;17.80;11.05;;;;;;;14.56;61.12;100241.09;5094602;28;20055;-58
2023/01/08 09:10:42;;;;;;;15.43;10.38;;;;;;;14.56;61.38;100237.56;5076447;28;20048;-58
2023/01/08 09:13:11;;;;;;;15.52;10.10;;;;;;;14.54;61.54;100226.09;5094790;28;20517;-58
2023/01/08 09:15:39;;;;;;;13.45;9.70;;;;;;;14.54;61.50;100226.09;5094550;28;20107;-60
2023/01/08 09:18:07;;;;;;;15.75;10.13;;;;;;;14.53;61.41;100227.06;5094287;28;20040;-60
2023/01/08 09:20:36;;;;;;;16.88;10.95;;;;;;;14.53;61.23;100221.69;5076197;28;20127;-60
2023/01/08 09:23:05;;;;;;;16.52;10.98;;;;;;;14.53;61.21;100225.22;5094293;28;20083;-58
2023/01/08 09:25:34;;;;;;;15.32;9.68;;;;;;;14.54;61.72;100226.09;5094453;28;20485;-60
2023/01/08 09:28:05;;;;;;;16.45;9.48;;;;;;;14.59;63.84;100221.22;5076200;28;20051;-60
2023/01/08 09:30:34;;;;;;;18.75;10.35;;;;;;;14.70;66.36;100217.72;5076114;28;20052;-59
2023/01/08 09:33:03;;;;;;;15.88;9.23;;;;;;;14.83;68.65;100216.63;5094276;28;20058;-58
2023/01/08 09:35:32;;;;;;;17.88;9.73;;;;;;;15.01;67.23;100211.63;5094362;28;20127;-59
2023/01/08 09:38:00;;;;;;;16.75;9.13;;;;;;;15.15;67.04;100211.41;5075970;28;20072;-59
2023/01/08 09:40:42;;;;;;;24.08;10.02;;;;;;;15.28;67.47;100207.72;5094199;28;20067;-60
2023/01/08 09:43:17;;;;;;;15.60;9.70;;;;;;;15.33;67.20;100203.69;5093810;28;20142;-61
2023/01/08 09:45:50;;;;;;;17.33;9.52;;;;;;;15.40;66.76;100196.84;5094347;28;20097;-59
2023/01/08 09:48:23;;;;;;;17.75;9.57;;;;;;;15.45;66.55;100202.72;5094062;28;20416;-56
2023/01/08 09:50:52;;;;;;;16.30;8.93;;;;;;;15.55;68.43;100191.22;5093896;28;20052;-60
2023/01/08 09:53:20;;;;;;;15.65;9.35;;;;;;;15.65;68.31;100173.38;5093526;28;20047;-60
2023/01/08 09:55:55;;;;;;;17.60;9.50;;;;;;;15.71;68.38;100172.84;5093660;28;20054;-60
2023/01/08 09:58:41;;;;;;;17.70;10.00;;;;;;;15.75;68.25;100160.88;5093738;28;20040;-60
2023/01/08 10:01:12;;;;;;;20.95;9.80;;;;;;;15.76;68.37;100172.47;5075567;28;20044;-59
2023/01/08 10:03:43;;;;;;;18.75;10.02;;;;;;;15.75;68.58;100163.56;5093412;28;20139;-59
2023/01/08 10:06:14;;;;;;;15.75;9.23;;;;;;;15.74;68.85;100151.94;5093452;28;20401;-61
2023/01/08 10:08:42;;;;;;;17.17;9.00;;;;;;;15.78;68.39;100146.31;5093623;28;20366;-60
2023/01/08 10:11:16;;;;;;;18.88;9.38;;;;;;;15.82;69.26;100137.00;5093464;28;20052;-60
2023/01/08 10:13:50;;;;;;;21.20;9.88;;;;;;;15.85;69.55;100132.22;5075297;28;20105;-60
2023/01/08 10:16:26;;;;;;;17.30;9.68;;;;;;;15.87;69.72;100116.81;5093432;28;20124;-59
2023/01/08 10:18:54;;;;;;;21.30;10.05;;;;;;;15.91;69.68;100126.31;5093192;28;20104;-59
2023/01/08 10:21:29;;;;;;;21.35;9.88;;;;;;;15.94;69.79;100118.00;5075118;28;20048;-60
2023/01/08 10:23:57;;;;;;;15.70;9.55;;;;;;;15.97;69.62;100127.63;5093269;28;20040;-62
2023/01/08 10:26:28;;;;;;;14.77;9.20;;;;;;;15.98;69.52;100116.75;5093180;28;20055;-59
2023/01/08 10:29:13;;;;;;;16.92;9.20;;;;;;;16.00;69.42;100114.78;5093212;28;20180;-60
2023/01/08 10:31:47;;;;;;;20.15;9.93;;;;;;;16.04;69.61;100107.31;5093084;28;20048;-58
2023/01/08 10:34:27;;;;;;;15.70;8.98;;;;;;;16.04;69.35;100104.63;5093059;28;20451;-58
2023/01/08 10:36:56;;;;;;;18.63;9.32;;;;;;;16.05;69.15;100100.09;5092929;28;20048;-59
2023/01/08 10:39:26;;;;;;;19.58;8.93;;;;;;;16.04;69.14;100093.88;5092999;28;20423;-58
2023/01/08 10:41:58;;;;;;;18.85;9.52;;;;;;;16.02;69.30;100095.84;5092607;28;20113;-59
2023/01/08 10:44:28;;;;;;;21.85;9.68;;;;;;;16.00;69.26;100079.81;5074621;28;20044;-59
2023/01/08 10:47:00;;;;;;;25.95;9.50;;;;;;;16.04;69.64;100083.09;5092847;28;20048;-59
2023/01/08 10:49:32;;;;;;;16.65;8.68;;;;;;;16.09;69.86;100071.94;5092645;28;20134;-58
2023/01/08 10:52:00;;;;;;;19.00;9.30;;;;;;;16.12;69.75;100077.06;5092606;28;20557;-59
2023/01/08 10:54:35;;;;;;;36.75;10.32;;;;;;;16.14;69.47;100067.88;5092766;28;20078;-61
2023/01/08 10:57:19;;;;;;;42.10;10.73;;;;;;;16.18;69.06;100072.00;5092798;28;20126;-61
2023/01/08 10:59:48;;;;;;;36.20;10.35;;;;;;;16.19;69.11;100070.16;5092635;28;20131;-59
2023/01/08 11:02:24;;;;;;;20.98;10.35;;;;;;;16.16;69.24;100073.97;5074263;28;20043;-60
2023/01/08 11:04:53;;;;;;;25.52;9.52;;;;;;;16.12;69.34;100069.84;5091692;28;20043;-59
2023/01/08 11:07:23;;;;;;;21.45;9.93;;;;;;;16.10;69.18;100065.56;5092561;28;20579;-56
2023/01/08 11:09:52;;;;;;;29.83;10.88;;;;;;;16.10;69.13;100061.03;5092478;28;20048;-58
2023/01/08 11:12:32;;;;;;;19.88;9.52;;;;;;;16.09;69.09;100055.78;5092439;28;20507;-59
2023/01/08 11:15:03;;;;;;;25.70;10.18;;;;;;;16.09;69.10;100058.47;5092280;28;20109;-59
2023/01/08 11:17:33;;;;;;;17.58;8.88;;;;;;;16.07;69.04;100042.47;5074052;28;20067;-60
2023/01/08 11:20:18;;;;;;;17.75;9.10;;;;;;;16.05;69.02;100035.53;5092143;28;20050;-59
2023/01/08 11:22:46;;;;;;;19.70;10.00;;;;;;;16.02;69.43;100026.75;5073751;28;20132;-59
2023/01/08 11:25:22;;;;;;;21.98;10.18;;;;;;;16.03;69.24;100022.22;5092066;28;20123;-60